createdAt,value
2018-05-11T00:01:27.175Z,70.70
2018-05-11T00:03:54.361Z,70.60
2018-05-11T00:06:21.584Z,71.10
2018-05-11T00:08:48.828Z,70.80
2018-05-11T00:11:16.089Z,70.70
2018-05-11T00:13:43.252Z,71.10
2018-05-11T00:16:10.596Z,70.80
2018-05-11T00:18:38.465Z,70.70
2018-05-11T00:21:05.716Z,70.80
2018-05-11T00:23:32.903Z,71.00
2018-05-11T00:26:00.985Z,70.70
2018-05-11T00:28:28.142Z,70.70
2018-05-11T00:30:56.093Z,70.90
2018-05-11T00:33:23.272Z,70.90
2018-05-11T00:35:51.204Z,71.10
2018-05-11T00:38:18.365Z,71.10
2018-05-11T00:40:45.581Z,71.20
2018-05-11T00:43:12.739Z,71.00
2018-05-11T00:45:39.992Z,70.90
2018-05-11T00:48:07.243Z,70.80
2018-05-11T00:50:34.408Z,71.20
2018-05-11T00:53:01.564Z,71.00
2018-05-11T00:55:34.525Z,70.60
2018-05-11T00:58:01.684Z,70.90
2018-05-11T01:00:28.849Z,71.00
2018-05-11T01:02:56.012Z,70.60
2018-05-11T01:05:23.171Z,71.00
2018-05-11T01:07:50.339Z,70.70
2018-05-11T01:10:18.264Z,70.90
2018-05-11T01:12:45.427Z,70.80
2018-05-11T01:15:12.628Z,71.00
2018-05-11T01:17:40.568Z,70.70
2018-05-11T01:20:07.886Z,70.50
2018-05-11T01:22:35.045Z,71.20
2018-05-11T01:25:02.253Z,70.80
2018-05-11T01:27:30.242Z,70.90
2018-05-11T01:29:57.410Z,70.90
2018-05-11T01:32:24.575Z,70.70
2018-05-11T01:34:52.540Z,70.80
2018-05-11T01:37:19.701Z,70.60
2018-05-11T01:39:46.867Z,70.50
2018-05-11T01:42:14.964Z,70.70
2018-05-11T01:44:42.982Z,70.50
2018-05-11T01:47:10.143Z,70.50
2018-05-11T01:49:37.343Z,70.70
2018-05-11T01:52:06.244Z,70.60
2018-05-11T01:54:34.169Z,70.70
2018-05-11T01:57:02.947Z,70.70
2018-05-11T01:59:30.879Z,70.60
2018-05-11T02:01:58.080Z,70.70
2018-05-11T02:04:25.240Z,70.70
2018-05-11T02:06:53.227Z,70.50
2018-05-11T02:09:22.072Z,70.60
2018-05-11T02:11:49.267Z,70.60
2018-05-11T02:14:16.432Z,70.50
2018-05-11T02:16:44.355Z,70.60
2018-05-11T02:19:11.512Z,70.60
2018-05-11T02:21:39.471Z,70.70
2018-05-11T02:24:06.643Z,70.80
2018-05-11T02:26:34.788Z,70.80
2018-05-11T02:29:02.838Z,70.60
2018-05-11T02:31:29.995Z,70.80
2018-05-11T02:33:57.155Z,70.70
2018-05-11T02:36:24.314Z,70.60
2018-05-11T02:38:52.307Z,70.70
2018-05-11T02:41:19.467Z,70.60
2018-05-11T02:43:46.640Z,70.60
2018-05-11T02:46:14.569Z,70.80
2018-05-11T02:48:41.772Z,70.80
2018-05-11T02:51:09.701Z,70.70
2018-05-11T02:53:37.765Z,70.70
2018-05-11T02:56:04.936Z,70.70
2018-05-11T02:58:32.100Z,70.70
2018-05-11T03:01:00.940Z,71.10
2018-05-11T03:03:29.040Z,70.70
2018-05-11T03:05:56.199Z,70.90
2018-05-11T03:08:24.340Z,70.90
2018-05-11T03:10:51.593Z,70.80
2018-05-11T03:13:18.850Z,70.90
2018-05-11T03:15:46.012Z,70.60
2018-05-11T03:18:13.167Z,70.90
2018-05-11T03:20:40.327Z,70.90
2018-05-11T03:23:07.488Z,70.90
2018-05-11T03:25:34.779Z,70.90
2018-05-11T03:28:01.940Z,70.70
2018-05-11T03:30:29.096Z,70.90
2018-05-11T03:32:56.263Z,70.90
2018-05-11T03:35:23.430Z,70.90
2018-05-11T03:37:50.600Z,70.80
2018-05-11T03:40:17.764Z,70.80
2018-05-11T03:42:44.919Z,70.90
2018-05-11T03:45:12.847Z,70.90
2018-05-11T03:47:40.004Z,70.80
2018-05-11T03:50:07.168Z,70.90
2018-05-11T03:52:34.328Z,70.90
2018-05-11T03:55:01.487Z,70.90
2018-05-11T03:57:29.539Z,70.80
2018-05-11T03:59:56.711Z,70.80
2018-05-11T04:02:30.524Z,70.90
2018-05-11T04:05:04.395Z,70.80
2018-05-11T04:07:37.462Z,70.80
2018-05-11T04:10:04.664Z,70.90
2018-05-11T04:12:31.819Z,71.00
2018-05-11T04:14:58.980Z,71.00
2018-05-11T04:17:26.908Z,71.00
2018-05-11T04:19:54.080Z,71.00
2018-05-11T04:22:21.289Z,71.00
2018-05-11T04:24:48.448Z,71.00
2018-05-11T04:27:15.607Z,70.90
2018-05-11T04:29:42.773Z,70.90
2018-05-11T04:32:09.935Z,70.80
2018-05-11T04:34:37.096Z,70.90
2018-05-11T04:37:04.260Z,70.80
2018-05-11T04:39:32.184Z,70.90
2018-05-11T04:41:59.346Z,70.80
2018-05-11T04:44:26.584Z,70.90
2018-05-11T04:46:53.832Z,70.70
2018-05-11T04:49:21.035Z,70.80
2018-05-11T04:51:48.969Z,70.80
2018-05-11T04:54:17.025Z,70.70
2018-05-11T04:56:44.188Z,71.00
2018-05-11T04:59:11.428Z,71.10
2018-05-11T05:01:38.593Z,70.80
2018-05-11T05:04:05.752Z,70.90
2018-05-11T05:06:33.808Z,71.50
2018-05-11T05:09:01.058Z,71.00
2018-05-11T05:11:28.220Z,71.00
2018-05-11T05:13:55.379Z,71.00
2018-05-11T05:16:22.534Z,71.00
2018-05-11T05:18:50.475Z,71.00
2018-05-11T05:21:17.652Z,71.00
2018-05-11T05:23:44.868Z,71.00
2018-05-11T05:26:12.337Z,70.90
2018-05-11T05:28:40.408Z,70.80
2018-05-11T05:31:08.571Z,71.50
2018-05-11T05:33:35.731Z,70.80
2018-05-11T05:36:02.888Z,70.90
2018-05-11T05:38:30.969Z,70.90
2018-05-11T05:40:58.202Z,70.80
2018-05-11T05:43:25.403Z,70.90
2018-05-11T05:45:53.526Z,70.80
2018-05-11T05:48:21.705Z,70.80
2018-05-11T05:50:48.868Z,70.80
2018-05-11T05:53:16.113Z,70.70
2018-05-11T05:55:43.283Z,70.80
2018-05-11T05:58:10.637Z,70.70
2018-05-11T06:00:38.790Z,70.70
2018-05-11T06:03:06.004Z,70.80
2018-05-11T06:05:33.931Z,70.90
2018-05-11T06:08:02.119Z,70.80
2018-05-11T06:10:30.213Z,70.80
2018-05-11T06:12:57.380Z,70.70
2018-05-11T06:15:26.124Z,70.80
2018-05-11T06:17:53.283Z,70.70
2018-05-11T06:20:21.247Z,70.70
2018-05-11T06:22:48.446Z,71.00
2018-05-11T06:25:16.376Z,70.90
2018-05-11T06:27:44.397Z,70.90
2018-05-11T06:30:11.669Z,70.90
2018-05-11T06:32:38.927Z,70.80
2018-05-11T06:35:06.128Z,70.60
2018-05-11T06:37:34.969Z,71.00
2018-05-11T06:40:02.169Z,70.20
2018-05-11T06:42:29.370Z,69.80
2018-05-11T06:44:56.571Z,69.70
2018-05-11T06:47:23.732Z,69.50
2018-05-11T06:49:51.720Z,69.40
2018-05-11T06:52:18.879Z,69.30
2018-05-11T06:54:46.144Z,69.30
2018-05-11T06:57:13.406Z,69.30
2018-05-11T06:59:40.568Z,69.20
2018-05-11T07:02:08.871Z,69.30
2018-05-11T07:04:37.048Z,69.20
2018-05-11T07:07:04.367Z,69.30
2018-05-11T07:09:32.343Z,69.20
2018-05-11T07:12:00.439Z,69.20
2018-05-11T07:14:27.657Z,69.30
2018-05-11T07:16:54.819Z,69.30
2018-05-11T07:19:23.017Z,69.20
2018-05-11T07:21:50.127Z,69.90
2018-05-11T07:24:18.109Z,69.20
2018-05-11T07:26:45.291Z,69.20
2018-05-11T07:29:13.272Z,69.20
2018-05-11T07:31:41.213Z,69.20
2018-05-11T07:34:09.120Z,69.20
2018-05-11T07:36:37.047Z,69.40
2018-05-11T07:39:04.213Z,69.30
2018-05-11T07:41:31.375Z,69.90
2018-05-11T07:43:58.532Z,69.40
2018-05-11T07:46:25.892Z,69.40
2018-05-11T07:48:54.058Z,69.80
2018-05-11T07:51:21.272Z,69.40
2018-05-11T07:53:48.446Z,69.40
2018-05-11T07:56:15.611Z,69.40
2018-05-11T07:58:42.777Z,69.30
2018-05-11T08:01:10.932Z,69.50
2018-05-11T08:03:38.096Z,69.60
2018-05-11T08:06:05.333Z,69.30
2018-05-11T08:08:33.303Z,69.30
2018-05-11T08:11:00.488Z,69.30
2018-05-11T08:13:28.420Z,69.30
2018-05-11T08:15:55.683Z,69.30
2018-05-11T08:18:22.922Z,69.30
2018-05-11T08:20:50.191Z,69.30
2018-05-11T08:23:17.353Z,69.40
2018-05-11T08:25:45.168Z,69.30
2018-05-11T08:28:13.212Z,69.40
2018-05-11T08:30:40.377Z,69.40
2018-05-11T08:33:08.308Z,69.30
2018-05-11T08:35:35.916Z,69.30
2018-05-11T08:38:03.859Z,69.50
2018-05-11T08:40:31.896Z,69.40
2018-05-11T08:42:59.848Z,69.50
2018-05-11T08:45:27.019Z,69.40
2018-05-11T08:47:54.188Z,69.60
2018-05-11T08:50:21.659Z,69.40
2018-05-11T08:52:50.348Z,69.50
2018-05-11T08:55:17.656Z,69.40
2018-05-11T08:57:44.827Z,69.30
2018-05-11T09:00:12.086Z,69.40
2018-05-11T09:02:39.251Z,69.40
2018-05-11T09:05:07.125Z,69.40
2018-05-11T09:07:34.358Z,69.40
2018-05-11T09:10:02.425Z,69.50
2018-05-11T09:12:29.583Z,69.40
2018-05-11T09:14:56.752Z,69.50
2018-05-11T09:17:23.966Z,69.40
2018-05-11T09:19:52.161Z,69.60
2018-05-11T09:22:19.370Z,69.50
2018-05-11T09:24:48.243Z,69.60
2018-05-11T09:27:15.452Z,69.50
2018-05-11T09:29:42.712Z,69.50
2018-05-11T09:32:09.919Z,69.40
2018-05-11T09:34:37.856Z,69.60
2018-05-11T09:37:05.070Z,69.60
2018-05-11T09:39:33.222Z,69.50
2018-05-11T09:42:00.411Z,69.60
2018-05-11T09:44:27.665Z,69.60
2018-05-11T09:46:54.840Z,69.50
2018-05-11T09:49:22.083Z,69.50
2018-05-11T09:51:49.251Z,69.60
2018-05-11T09:54:16.507Z,69.60
2018-05-11T09:56:43.677Z,69.70
2018-05-11T09:59:11.692Z,69.80
2018-05-11T10:01:38.892Z,69.80
2018-05-11T10:04:06.823Z,69.80
2018-05-11T10:06:33.987Z,69.70
2018-05-11T10:09:01.153Z,69.60
2018-05-11T10:11:28.371Z,70.00
2018-05-11T10:13:55.623Z,69.80
2018-05-11T10:16:23.631Z,69.90
2018-05-11T10:18:50.800Z,69.80
2018-05-11T10:21:18.776Z,69.90
2018-05-11T10:23:46.759Z,69.80
2018-05-11T10:26:13.923Z,69.80
2018-05-11T10:28:41.168Z,69.70
2018-05-11T10:31:08.379Z,69.80
2018-05-11T10:33:35.669Z,69.70
2018-05-11T10:36:02.827Z,69.80
2018-05-11T10:38:30.036Z,69.60
2018-05-11T10:40:58.144Z,69.70
2018-05-11T10:43:26.987Z,69.80
2018-05-11T10:45:54.224Z,69.70
2018-05-11T10:48:21.391Z,69.80
2018-05-11T10:50:48.555Z,69.80
2018-05-11T10:53:15.720Z,69.60
2018-05-11T10:55:42.888Z,69.80
2018-05-11T10:58:10.895Z,69.60
2018-05-11T11:00:38.088Z,69.60
2018-05-11T11:03:06.224Z,69.80
2018-05-11T11:05:33.388Z,69.70
2018-05-11T11:08:01.397Z,69.70
2018-05-11T11:10:29.336Z,69.80
2018-05-11T11:12:56.565Z,69.80
2018-05-11T11:15:23.825Z,69.70
2018-05-11T11:17:51.811Z,69.80
2018-05-11T11:20:19.080Z,69.80
2018-05-11T11:22:46.331Z,69.60
2018-05-11T11:25:13.543Z,69.80
2018-05-11T11:27:40.711Z,69.80
2018-05-11T11:30:08.062Z,69.80
2018-05-11T11:32:35.233Z,69.80
2018-05-11T11:35:02.441Z,69.80
2018-05-11T11:37:29.599Z,69.80
2018-05-11T11:39:56.883Z,69.80
2018-05-11T11:42:24.003Z,69.80
2018-05-11T11:44:51.168Z,69.90
2018-05-11T11:47:18.327Z,69.70
2018-05-11T11:49:45.572Z,69.90
2018-05-11T11:52:12.760Z,69.90
2018-05-11T11:54:40.936Z,70.00
2018-05-11T11:57:08.995Z,69.80
2018-05-11T11:59:36.160Z,69.90
2018-05-11T12:02:03.419Z,69.80
2018-05-11T12:04:30.532Z,69.90
2018-05-11T12:06:57.713Z,69.90
2018-05-11T12:09:24.885Z,70.00
2018-05-11T12:11:53.589Z,69.90
2018-05-11T12:14:20.768Z,69.90
2018-05-11T12:16:48.027Z,69.80
2018-05-11T12:19:15.196Z,69.80
2018-05-11T12:21:42.412Z,70.00
2018-05-11T12:24:09.680Z,70.00
2018-05-11T12:26:36.851Z,69.90
2018-05-11T12:29:04.089Z,70.00
2018-05-11T12:31:31.263Z,70.00
2018-05-11T12:33:58.477Z,70.00
2018-05-11T12:36:25.640Z,70.10
2018-05-11T12:38:52.825Z,70.10
2018-05-11T12:41:19.987Z,70.00
2018-05-11T12:43:47.148Z,69.90
2018-05-11T12:46:15.101Z,70.10
2018-05-11T12:48:42.265Z,70.10
2018-05-11T12:51:10.191Z,70.00
2018-05-11T12:53:38.261Z,70.10
2018-05-11T12:56:06.539Z,70.00
2018-05-11T12:58:33.711Z,70.10
2018-05-11T13:01:00.931Z,70.10
2018-05-11T13:03:28.101Z,70.00
2018-05-11T13:05:55.349Z,70.10
2018-05-11T13:08:22.598Z,70.10
2018-05-11T13:10:49.764Z,69.90
2018-05-11T13:13:16.933Z,70.20
2018-05-11T13:15:44.153Z,70.00
2018-05-11T13:18:11.356Z,70.10
2018-05-11T13:20:39.548Z,70.30
2018-05-11T13:23:06.724Z,70.20
2018-05-11T13:25:33.927Z,70.10
2018-05-11T13:28:01.120Z,70.20
2018-05-11T13:30:28.407Z,70.10
2018-05-11T13:32:56.275Z,70.20
2018-05-11T13:35:23.475Z,70.10
2018-05-11T13:37:51.399Z,70.10
2018-05-11T13:40:18.606Z,70.10
2018-05-11T13:42:46.595Z,70.10
2018-05-11T13:45:13.760Z,70.20
2018-05-11T13:47:40.964Z,70.10
2018-05-11T13:50:09.660Z,69.80
2018-05-11T13:52:37.587Z,70.00
2018-05-11T13:55:04.751Z,70.00
2018-05-11T13:57:31.915Z,70.10
2018-05-11T13:59:59.853Z,70.30
2018-05-11T14:02:27.068Z,70.20
2018-05-11T14:04:54.270Z,70.10
2018-05-11T14:07:21.432Z,70.30
2018-05-11T14:09:48.632Z,70.20
2018-05-11T14:12:15.805Z,70.20
2018-05-11T14:14:43.020Z,70.30
2018-05-11T14:17:10.184Z,70.40
2018-05-11T14:19:37.349Z,70.50
2018-05-11T14:22:04.511Z,70.30
2018-05-11T14:24:31.676Z,70.20
2018-05-11T14:26:58.843Z,70.30
2018-05-11T14:29:26.062Z,70.50
2018-05-11T14:31:53.315Z,70.40
2018-05-11T14:34:20.496Z,70.50
2018-05-11T14:36:47.704Z,70.40
2018-05-11T14:39:14.951Z,70.50
2018-05-11T14:41:42.112Z,70.50
2018-05-11T14:44:09.277Z,70.50
2018-05-11T14:46:36.479Z,70.60
2018-05-11T14:49:04.412Z,70.60
2018-05-11T14:51:32.444Z,70.60
2018-05-11T14:53:59.615Z,70.50
2018-05-11T14:56:26.828Z,70.60
2018-05-11T14:58:54.764Z,70.30
2018-05-11T15:01:21.939Z,70.30
2018-05-11T15:03:50.882Z,70.30
2018-05-11T15:06:18.141Z,70.30
2018-05-11T15:08:45.390Z,70.50
2018-05-11T15:11:13.452Z,70.40
2018-05-11T15:13:41.630Z,70.30
2018-05-11T15:16:08.797Z,70.20
2018-05-11T15:18:36.019Z,70.70
2018-05-11T15:21:03.276Z,70.50
2018-05-11T15:23:31.385Z,70.50
2018-05-11T15:25:59.351Z,70.50
2018-05-11T15:28:26.524Z,70.50
2018-05-11T15:33:40.772Z,70.70
2018-05-11T15:36:08.044Z,70.70
2018-05-11T15:38:35.213Z,70.80
2018-05-11T15:41:03.234Z,70.60
2018-05-11T15:43:30.484Z,70.60
2018-05-11T15:45:57.840Z,70.50
2018-05-11T15:48:24.999Z,70.20
2018-05-11T15:50:52.237Z,70.50
2018-05-11T15:53:19.503Z,70.30
2018-05-11T15:55:46.681Z,70.30
2018-05-11T15:58:13.907Z,70.40
2018-05-11T16:00:41.264Z,70.40
2018-05-11T16:03:08.441Z,70.30
2018-05-11T16:05:35.615Z,70.40
2018-05-11T16:08:03.599Z,70.40
2018-05-11T16:10:31.556Z,70.40
2018-05-11T16:12:59.569Z,70.70
2018-05-11T16:15:26.737Z,70.70
2018-05-11T16:17:53.903Z,70.70
2018-05-11T16:20:21.068Z,70.70
2018-05-11T16:22:49.008Z,70.80
2018-05-11T16:25:16.179Z,70.80
2018-05-11T16:27:44.128Z,70.90
2018-05-11T16:30:11.332Z,70.90
2018-05-11T16:32:39.264Z,71.00
2018-05-11T16:35:06.469Z,70.80
2018-05-11T16:37:33.658Z,70.90
2018-05-11T16:40:00.829Z,70.90
2018-05-11T16:42:29.603Z,70.80
2018-05-11T16:44:56.820Z,70.70
2018-05-11T16:47:24.021Z,70.80
2018-05-11T16:49:51.987Z,70.90
2018-05-11T16:52:19.211Z,70.90
2018-05-11T16:54:46.477Z,70.90
2018-05-11T16:57:17.731Z,70.90
2018-05-11T16:59:44.972Z,70.90
2018-05-11T17:02:12.152Z,70.90
2018-05-11T17:04:39.481Z,70.80
2018-05-11T17:07:06.655Z,70.90
2018-05-11T17:09:33.823Z,70.90
2018-05-11T17:12:01.038Z,70.90
2018-05-11T17:14:28.228Z,70.80
2018-05-11T17:16:56.289Z,70.60
2018-05-11T17:19:23.461Z,70.90
2018-05-11T17:21:51.473Z,71.00
2018-05-11T17:24:18.659Z,70.90
2018-05-11T17:26:48.274Z,70.90
2018-05-11T17:29:15.606Z,71.00
2018-05-11T17:31:42.951Z,71.00
2018-05-11T17:34:10.176Z,71.10
2018-05-11T17:36:37.455Z,71.10
2018-05-11T17:39:04.620Z,71.00
2018-05-11T17:41:36.532Z,71.10
2018-05-11T17:44:03.856Z,71.00
2018-05-11T17:46:31.103Z,70.90
2018-05-11T17:48:59.056Z,70.60
2018-05-11T17:51:27.460Z,71.10
2018-05-11T17:53:54.787Z,70.90
2018-05-11T17:56:25.360Z,70.90
2018-05-11T17:58:54.250Z,70.60
2018-05-11T18:01:24.694Z,70.40
2018-05-11T18:03:57.812Z,70.30
2018-05-11T18:06:26.928Z,69.70
2018-05-11T18:08:55.362Z,70.30
2018-05-11T18:11:23.328Z,70.10
2018-05-11T18:13:51.356Z,70.10
2018-05-11T18:16:18.765Z,70.10
2018-05-11T18:18:46.700Z,70.10
2018-05-11T18:21:14.083Z,70.00
2018-05-11T18:23:42.030Z,70.10
2018-05-11T18:26:09.201Z,70.10
2018-05-11T18:28:37.138Z,70.00
2018-05-11T18:31:04.335Z,70.00
2018-05-11T18:33:32.343Z,70.20
2018-05-11T18:35:59.608Z,70.10
2018-05-11T18:38:26.848Z,70.00
2018-05-11T18:40:54.034Z,70.10
2018-05-11T18:43:22.073Z,70.20
2018-05-11T18:45:49.428Z,70.40
2018-05-11T18:48:16.645Z,70.90
2018-05-11T18:50:43.835Z,70.40
2018-05-11T18:53:11.322Z,70.40
2018-05-11T18:55:38.339Z,70.30
2018-05-11T18:58:05.592Z,70.30
2018-05-11T19:00:32.881Z,70.30
2018-05-11T19:03:00.100Z,70.30
2018-05-11T19:05:27.268Z,70.40
2018-05-11T19:07:54.488Z,70.30
2018-05-11T19:10:21.692Z,70.30
2018-05-11T19:12:48.908Z,70.40
2018-05-11T19:15:16.158Z,70.40
2018-05-11T19:17:43.323Z,70.20
2018-05-11T19:20:10.741Z,70.10
2018-05-11T19:22:38.027Z,70.30
2018-05-11T19:25:05.212Z,70.30
2018-05-11T19:27:32.380Z,70.30
2018-05-11T19:30:00.316Z,70.50
2018-05-11T19:32:27.485Z,70.50
2018-05-11T19:34:54.700Z,70.40
2018-05-11T19:37:21.867Z,70.30
2018-05-11T19:39:49.319Z,70.10
2018-05-11T19:42:16.856Z,70.20
2018-05-11T19:44:44.875Z,70.50
2018-05-11T19:47:12.044Z,70.40
2018-05-11T19:49:39.972Z,70.00
2018-05-11T19:52:07.186Z,69.90
2018-05-11T19:54:35.105Z,70.20
2018-05-11T19:57:02.272Z,70.20
2018-05-11T19:59:29.489Z,70.20
2018-05-11T20:01:56.656Z,70.00
2018-05-11T20:04:23.829Z,70.30
2018-05-11T20:06:51.094Z,70.30
2018-05-11T20:09:18.328Z,70.20
2018-05-11T20:11:45.536Z,70.30
2018-05-11T20:14:12.703Z,70.50
2018-05-11T20:16:39.874Z,70.20
2018-05-11T20:19:07.159Z,70.00
2018-05-11T20:21:35.092Z,70.50
2018-05-11T20:24:02.443Z,70.50
2018-05-11T20:26:29.607Z,70.30
2018-05-11T20:28:56.838Z,70.50
2018-05-11T20:31:24.268Z,70.10
2018-05-11T20:33:51.449Z,70.20
2018-05-11T20:36:18.619Z,70.30
2018-05-11T20:38:45.853Z,70.40
2018-05-11T20:41:13.016Z,70.10
2018-05-11T20:43:40.877Z,70.10
2018-05-11T20:46:08.047Z,70.50
2018-05-11T20:48:35.221Z,70.50
2018-05-11T20:51:03.244Z,71.20
2018-05-11T20:53:30.410Z,70.40
2018-05-11T20:55:57.854Z,70.30
2018-05-11T20:58:25.258Z,70.40
2018-05-11T21:00:53.288Z,70.50
2018-05-11T21:03:20.457Z,70.50
2018-05-11T21:05:47.726Z,70.30
2018-05-11T21:08:14.888Z,70.30
2018-05-11T21:10:42.861Z,70.10
2018-05-11T21:13:10.912Z,70.50
2018-05-11T21:15:38.968Z,70.50
2018-05-11T21:18:06.216Z,70.60
2018-05-11T21:20:33.604Z,70.40
2018-05-11T21:23:00.789Z,70.40
2018-05-11T21:25:28.082Z,70.30
2018-05-11T21:27:55.318Z,70.50
2018-05-11T21:30:22.481Z,70.40
2018-05-11T21:32:49.648Z,70.40
2018-05-11T21:35:16.813Z,70.60
2018-05-11T21:37:44.849Z,70.40
2018-05-11T21:40:12.012Z,70.50
2018-05-11T21:42:39.253Z,70.60
2018-05-11T21:45:06.455Z,70.60
2018-05-11T21:47:34.477Z,71.20
2018-05-11T21:50:02.648Z,71.20
2018-05-11T21:52:29.906Z,71.10
2018-05-11T21:54:57.248Z,71.10
2018-05-11T21:57:24.413Z,70.80
2018-05-11T21:59:51.585Z,70.80
2018-05-11T22:02:18.815Z,70.80
2018-05-11T22:04:45.977Z,70.80
2018-05-11T22:07:13.140Z,70.80
2018-05-11T22:09:40.372Z,70.70
2018-05-11T22:12:07.539Z,70.70
2018-05-11T22:14:34.773Z,70.70
2018-05-11T22:17:02.863Z,70.70
2018-05-11T22:19:30.025Z,70.70
2018-05-11T22:21:57.248Z,70.70
2018-05-11T22:24:24.412Z,70.70
2018-05-11T22:26:51.624Z,70.60
2018-05-11T22:29:19.624Z,70.60
2018-05-11T22:31:46.917Z,70.60
2018-05-11T22:34:14.117Z,70.70
2018-05-11T22:36:41.315Z,70.70
2018-05-11T22:39:08.477Z,70.70
2018-05-11T22:41:37.147Z,70.70
2018-05-11T22:44:04.319Z,70.60
2018-05-11T22:46:31.484Z,70.70
2018-05-11T22:48:59.499Z,70.70
2018-05-11T22:51:26.657Z,70.70
2018-05-11T22:53:53.904Z,70.70
2018-05-11T22:56:21.073Z,70.70
2018-05-11T22:58:48.303Z,70.70
2018-05-11T23:01:15.468Z,70.70
2018-05-11T23:03:43.498Z,70.60
2018-05-11T23:06:11.436Z,70.70
2018-05-11T23:08:39.647Z,70.70
2018-05-11T23:11:06.926Z,70.70
2018-05-11T23:13:34.870Z,70.70
2018-05-11T23:16:02.943Z,70.80
2018-05-11T23:18:30.100Z,70.90
2018-05-11T23:20:57.372Z,70.80
2018-05-11T23:23:24.532Z,70.80
2018-05-11T23:25:51.782Z,70.80
2018-05-11T23:28:18.944Z,70.80
2018-05-11T23:30:46.109Z,71.00
2018-05-11T23:33:13.272Z,71.00
2018-05-11T23:35:40.435Z,70.90
2018-05-11T23:38:08.389Z,71.30
2018-05-11T23:40:35.616Z,70.90
2018-05-11T23:43:02.865Z,70.70
2018-05-11T23:45:30.113Z,70.90
2018-05-11T23:47:57.276Z,70.90
2018-05-11T23:50:24.552Z,70.90
2018-05-11T23:52:51.769Z,70.90
2018-05-11T23:55:19.028Z,70.90
2018-05-11T23:57:46.384Z,70.90
